sensor_id;sensor_type;location;lat;lon;timestamp;P1;durP1;ratioP1;P2;durP2;ratioP2
9485;SDS011;4781;48.776;9.200;2023-05-28T00:02:00;13.55;;;5.45;;
9485;SDS011;4781;48.776;9.200;2023-05-28T00:04:28;9.23;;;4.97;;
9485;SDS011;4781;48.776;9.200;2023-05-28T00:06:57;12.23;;;5.50;;
9485;SDS011;4781;48.776;9.200;2023-05-28T00:09:25;11.50;;;5.10;;
9485;SDS011;4781;48.776;9.200;2023-05-28T00:11:54;12.15;;;5.50;;
9485;SDS011;4781;48.776;9.200;2023-05-28T00:14:22;11.33;;;5.62;;
9485;SDS011;4781;48.776;9.200;2023-05-28T00:16:51;10.75;;;5.75;;
9485;SDS011;4781;48.776;9.200;2023-05-28T00:19:19;9.40;;;5.20;;
9485;SDS011;4781;48.776;9.200;2023-05-28T00:21:48;12.37;;;5.47;;
9485;SDS011;4781;48.776;9.200;2023-05-28T00:24:16;12.18;;;5.50;;
9485;SDS011;4781;48.776;9.200;2023-05-28T00:26:45;12.07;;;5.62;;
9485;SDS011;4781;48.776;9.200;2023-05-28T00:29:13;13.98;;;5.78;;
9485;SDS011;4781;48.776;9.200;2023-05-28T00:31:41;8.95;;;5.35;;
9485;SDS011;4781;48.776;9.200;2023-05-28T00:34:10;13.18;;;5.42;;
9485;SDS011;4781;48.776;9.200;2023-05-28T00:36:38;12.80;;;5.55;;
9485;SDS011;4781;48.776;9.200;2023-05-28T00:39:07;14.63;;;5.65;;
9485;SDS011;4781;48.776;9.200;2023-05-28T00:41:35;12.58;;;5.35;;
9485;SDS011;4781;48.776;9.200;2023-05-28T00:44:05;11.30;;;5.12;;
9485;SDS011;4781;48.776;9.200;2023-05-28T00:46:40;11.78;;;5.08;;
9485;SDS011;4781;48.776;9.200;2023-05-28T00:49:08;12.28;;;5.75;;
9485;SDS011;4781;48.776;9.200;2023-05-28T00:51:38;11.15;;;5.03;;
9485;SDS011;4781;48.776;9.200;2023-05-28T00:54:07;12.50;;;5.62;;
9485;SDS011;4781;48.776;9.200;2023-05-28T00:56:37;11.40;;;5.80;;
9485;SDS011;4781;48.776;9.200;2023-05-28T00:59:06;13.65;;;6.03;;
9485;SDS011;4781;48.776;9.200;2023-05-28T01:01:34;9.37;;;5.17;;
9485;SDS011;4781;48.776;9.200;2023-05-28T01:04:04;10.65;;;5.03;;
9485;SDS011;4781;48.776;9.200;2023-05-28T01:06:32;12.98;;;5.40;;
9485;SDS011;4781;48.776;9.200;2023-05-28T01:09:02;11.05;;;5.42;;
9485;SDS011;4781;48.776;9.200;2023-05-28T01:11:35;11.35;;;5.37;;
9485;SDS011;4781;48.776;9.200;2023-05-28T01:14:06;14.68;;;5.67;;
9485;SDS011;4781;48.776;9.200;2023-05-28T01:16:35;11.57;;;5.53;;
9485;SDS011;4781;48.776;9.200;2023-05-28T01:19:04;11.18;;;5.53;;
9485;SDS011;4781;48.776;9.200;2023-05-28T01:21:37;10.93;;;5.65;;
9485;SDS011;4781;48.776;9.200;2023-05-28T01:24:07;13.40;;;5.90;;
9485;SDS011;4781;48.776;9.200;2023-05-28T01:26:41;12.25;;;5.85;;
9485;SDS011;4781;48.776;9.200;2023-05-28T01:29:13;10.10;;;5.35;;
9485;SDS011;4781;48.776;9.200;2023-05-28T01:31:43;14.83;;;6.10;;
9485;SDS011;4781;48.776;9.200;2023-05-28T01:34:12;12.80;;;5.90;;
9485;SDS011;4781;48.776;9.200;2023-05-28T01:36:45;11.97;;;5.67;;
9485;SDS011;4781;48.776;9.200;2023-05-28T01:39:21;10.32;;;5.45;;
9485;SDS011;4781;48.776;9.200;2023-05-28T01:41:53;12.50;;;6.58;;
9485;SDS011;4781;48.776;9.200;2023-05-28T01:44:23;14.28;;;6.55;;
9485;SDS011;4781;48.776;9.200;2023-05-28T01:46:52;11.40;;;6.35;;
9485;SDS011;4781;48.776;9.200;2023-05-28T01:49:21;12.03;;;5.80;;
9485;SDS011;4781;48.776;9.200;2023-05-28T01:51:50;14.20;;;5.87;;
9485;SDS011;4781;48.776;9.200;2023-05-28T01:54:19;8.28;;;5.15;;
9485;SDS011;4781;48.776;9.200;2023-05-28T01:56:48;13.18;;;5.75;;
9485;SDS011;4781;48.776;9.200;2023-05-28T01:59:16;12.05;;;5.87;;
9485;SDS011;4781;48.776;9.200;2023-05-28T02:01:46;13.00;;;5.78;;
9485;SDS011;4781;48.776;9.200;2023-05-28T02:04:14;13.13;;;5.65;;
9485;SDS011;4781;48.776;9.200;2023-05-28T02:06:44;11.38;;;5.53;;
9485;SDS011;4781;48.776;9.200;2023-05-28T02:09:13;11.68;;;5.17;;
9485;SDS011;4781;48.776;9.200;2023-05-28T02:11:41;12.80;;;5.37;;
9485;SDS011;4781;48.776;9.200;2023-05-28T02:14:10;11.63;;;5.03;;
9485;SDS011;4781;48.776;9.200;2023-05-28T02:16:45;13.72;;;5.20;;
9485;SDS011;4781;48.776;9.200;2023-05-28T02:19:17;15.03;;;6.28;;
9485;SDS011;4781;48.776;9.200;2023-05-28T02:21:46;15.20;;;6.80;;
9485;SDS011;4781;48.776;9.200;2023-05-28T02:24:14;13.05;;;5.72;;
9485;SDS011;4781;48.776;9.200;2023-05-28T02:26:43;13.03;;;6.45;;
9485;SDS011;4781;48.776;9.200;2023-05-28T02:29:11;12.80;;;5.80;;
9485;SDS011;4781;48.776;9.200;2023-05-28T02:31:40;10.70;;;5.97;;
9485;SDS011;4781;48.776;9.200;2023-05-28T02:34:08;12.28;;;6.03;;
9485;SDS011;4781;48.776;9.200;2023-05-28T02:36:37;12.25;;;6.05;;
9485;SDS011;4781;48.776;9.200;2023-05-28T02:39:06;12.50;;;5.85;;
9485;SDS011;4781;48.776;9.200;2023-05-28T02:41:36;13.58;;;6.25;;
9485;SDS011;4781;48.776;9.200;2023-05-28T02:44:04;10.98;;;6.17;;
9485;SDS011;4781;48.776;9.200;2023-05-28T02:46:32;13.08;;;6.20;;
9485;SDS011;4781;48.776;9.200;2023-05-28T02:49:01;12.33;;;6.28;;
9485;SDS011;4781;48.776;9.200;2023-05-28T02:51:29;10.58;;;6.12;;
9485;SDS011;4781;48.776;9.200;2023-05-28T02:53:58;13.85;;;6.53;;
9485;SDS011;4781;48.776;9.200;2023-05-28T02:56:26;11.50;;;6.22;;
9485;SDS011;4781;48.776;9.200;2023-05-28T02:58:55;13.78;;;6.42;;
9485;SDS011;4781;48.776;9.200;2023-05-28T03:01:23;14.60;;;6.33;;
9485;SDS011;4781;48.776;9.200;2023-05-28T03:03:52;13.30;;;7.03;;
9485;SDS011;4781;48.776;9.200;2023-05-28T03:06:21;13.72;;;6.30;;
9485;SDS011;4781;48.776;9.200;2023-05-28T03:08:49;12.20;;;6.17;;
9485;SDS011;4781;48.776;9.200;2023-05-28T03:11:17;12.63;;;6.50;;
9485;SDS011;4781;48.776;9.200;2023-05-28T03:13:46;15.70;;;6.33;;
9485;SDS011;4781;48.776;9.200;2023-05-28T03:16:14;12.65;;;6.05;;
9485;SDS011;4781;48.776;9.200;2023-05-28T03:18:43;12.60;;;6.20;;
9485;SDS011;4781;48.776;9.200;2023-05-28T03:21:12;12.03;;;5.83;;
9485;SDS011;4781;48.776;9.200;2023-05-28T03:23:41;13.32;;;6.80;;
9485;SDS011;4781;48.776;9.200;2023-05-28T03:26:09;13.20;;;5.62;;
9485;SDS011;4781;48.776;9.200;2023-05-28T03:28:38;14.00;;;6.35;;
9485;SDS011;4781;48.776;9.200;2023-05-28T03:31:06;11.97;;;6.30;;
9485;SDS011;4781;48.776;9.200;2023-05-28T03:33:34;13.75;;;5.83;;
9485;SDS011;4781;48.776;9.200;2023-05-28T03:36:03;12.63;;;5.85;;
9485;SDS011;4781;48.776;9.200;2023-05-28T03:38:32;10.53;;;5.80;;
9485;SDS011;4781;48.776;9.200;2023-05-28T03:41:02;10.80;;;5.97;;
9485;SDS011;4781;48.776;9.200;2023-05-28T03:43:30;13.85;;;5.97;;
9485;SDS011;4781;48.776;9.200;2023-05-28T03:46:01;15.32;;;5.80;;
9485;SDS011;4781;48.776;9.200;2023-05-28T03:48:29;11.97;;;5.40;;
9485;SDS011;4781;48.776;9.200;2023-05-28T03:50:58;12.25;;;6.00;;
9485;SDS011;4781;48.776;9.200;2023-05-28T03:53:26;11.43;;;6.08;;
9485;SDS011;4781;48.776;9.200;2023-05-28T03:55:54;8.70;;;4.80;;
9485;SDS011;4781;48.776;9.200;2023-05-28T03:58:23;13.03;;;5.37;;
9485;SDS011;4781;48.776;9.200;2023-05-28T04:00:51;9.50;;;5.03;;
9485;SDS011;4781;48.776;9.200;2023-05-28T04:03:20;10.58;;;5.33;;
9485;SDS011;4781;48.776;9.200;2023-05-28T04:05:48;12.05;;;5.87;;
9485;SDS011;4781;48.776;9.200;2023-05-28T04:08:16;12.60;;;5.28;;
9485;SDS011;4781;48.776;9.200;2023-05-28T04:10:45;12.63;;;5.37;;
9485;SDS011;4781;48.776;9.200;2023-05-28T04:13:14;13.65;;;6.53;;
9485;SDS011;4781;48.776;9.200;2023-05-28T04:15:42;13.98;;;5.08;;
9485;SDS011;4781;48.776;9.200;2023-05-28T04:18:11;10.85;;;4.80;;
9485;SDS011;4781;48.776;9.200;2023-05-28T04:20:39;10.32;;;4.72;;
9485;SDS011;4781;48.776;9.200;2023-05-28T04:23:07;11.25;;;5.45;;
9485;SDS011;4781;48.776;9.200;2023-05-28T04:25:36;10.82;;;5.62;;
9485;SDS011;4781;48.776;9.200;2023-05-28T04:28:04;12.63;;;5.85;;
9485;SDS011;4781;48.776;9.200;2023-05-28T04:30:33;9.38;;;5.62;;
9485;SDS011;4781;48.776;9.200;2023-05-28T04:33:01;14.30;;;6.17;;
9485;SDS011;4781;48.776;9.200;2023-05-28T04:35:30;10.93;;;5.67;;
9485;SDS011;4781;48.776;9.200;2023-05-28T04:37:58;14.40;;;5.70;;
9485;SDS011;4781;48.776;9.200;2023-05-28T04:40:27;12.50;;;5.35;;
9485;SDS011;4781;48.776;9.200;2023-05-28T04:42:56;10.50;;;5.62;;
9485;SDS011;4781;48.776;9.200;2023-05-28T04:45:24;11.28;;;6.72;;
9485;SDS011;4781;48.776;9.200;2023-05-28T04:47:52;13.32;;;5.53;;
9485;SDS011;4781;48.776;9.200;2023-05-28T04:50:21;11.68;;;5.60;;
9485;SDS011;4781;48.776;9.200;2023-05-28T04:52:49;14.23;;;6.85;;
9485;SDS011;4781;48.776;9.200;2023-05-28T04:55:18;12.18;;;5.90;;
9485;SDS011;4781;48.776;9.200;2023-05-28T04:57:46;10.70;;;5.85;;
9485;SDS011;4781;48.776;9.200;2023-05-28T05:00:15;15.97;;;6.33;;
9485;SDS011;4781;48.776;9.200;2023-05-28T05:02:44;12.65;;;6.22;;
9485;SDS011;4781;48.776;9.200;2023-05-28T05:05:13;11.85;;;5.72;;
9485;SDS011;4781;48.776;9.200;2023-05-28T05:07:42;13.35;;;5.85;;
9485;SDS011;4781;48.776;9.200;2023-05-28T05:10:10;12.07;;;5.33;;
9485;SDS011;4781;48.776;9.200;2023-05-28T05:12:39;11.38;;;5.72;;
9485;SDS011;4781;48.776;9.200;2023-05-28T05:15:08;12.23;;;6.12;;
9485;SDS011;4781;48.776;9.200;2023-05-28T05:17:36;11.57;;;6.25;;
9485;SDS011;4781;48.776;9.200;2023-05-28T05:20:05;13.13;;;6.10;;
9485;SDS011;4781;48.776;9.200;2023-05-28T05:22:34;11.22;;;6.05;;
9485;SDS011;4781;48.776;9.200;2023-05-28T05:25:03;13.38;;;6.28;;
9485;SDS011;4781;48.776;9.200;2023-05-28T05:27:34;10.95;;;6.00;;
9485;SDS011;4781;48.776;9.200;2023-05-28T05:30:04;13.54;;;6.96;;
9485;SDS011;4781;48.776;9.200;2023-05-28T05:32:34;13.53;;;7.00;;
9485;SDS011;4781;48.776;9.200;2023-05-28T05:35:02;14.38;;;6.50;;
9485;SDS011;4781;48.776;9.200;2023-05-28T05:37:32;13.30;;;6.78;;
9485;SDS011;4781;48.776;9.200;2023-05-28T05:40:01;15.08;;;6.47;;
9485;SDS011;4781;48.776;9.200;2023-05-28T05:42:34;11.05;;;6.53;;
9485;SDS011;4781;48.776;9.200;2023-05-28T05:45:04;14.45;;;6.90;;
9485;SDS011;4781;48.776;9.200;2023-05-28T05:47:36;16.05;;;6.95;;
9485;SDS011;4781;48.776;9.200;2023-05-28T05:50:04;13.72;;;6.87;;
9485;SDS011;4781;48.776;9.200;2023-05-28T05:52:33;10.75;;;6.42;;
9485;SDS011;4781;48.776;9.200;2023-05-28T05:55:02;12.85;;;6.42;;
9485;SDS011;4781;48.776;9.200;2023-05-28T05:57:31;14.25;;;6.70;;
9485;SDS011;4781;48.776;9.200;2023-05-28T06:00:07;11.93;;;6.47;;
9485;SDS011;4781;48.776;9.200;2023-05-28T06:02:34;16.10;;;6.53;;
9485;SDS011;4781;48.776;9.200;2023-05-28T06:05:03;11.85;;;6.30;;
9485;SDS011;4781;48.776;9.200;2023-05-28T06:07:32;12.70;;;6.70;;
9485;SDS011;4781;48.776;9.200;2023-05-28T06:10:00;13.38;;;6.40;;
9485;SDS011;4781;48.776;9.200;2023-05-28T06:12:29;12.13;;;6.40;;
9485;SDS011;4781;48.776;9.200;2023-05-28T06:14:57;14.40;;;6.75;;
9485;SDS011;4781;48.776;9.200;2023-05-28T06:17:26;11.97;;;6.35;;
9485;SDS011;4781;48.776;9.200;2023-05-28T06:19:55;13.50;;;6.05;;
9485;SDS011;4781;48.776;9.200;2023-05-28T06:22:23;11.78;;;6.35;;
9485;SDS011;4781;48.776;9.200;2023-05-28T06:24:52;12.63;;;6.35;;
9485;SDS011;4781;48.776;9.200;2023-05-28T06:27:21;11.80;;;5.90;;
9485;SDS011;4781;48.776;9.200;2023-05-28T06:29:51;12.43;;;6.20;;
9485;SDS011;4781;48.776;9.200;2023-05-28T06:32:19;14.05;;;6.55;;
9485;SDS011;4781;48.776;9.200;2023-05-28T06:34:48;11.28;;;5.78;;
9485;SDS011;4781;48.776;9.200;2023-05-28T06:37:16;13.22;;;6.45;;
9485;SDS011;4781;48.776;9.200;2023-05-28T06:39:45;10.72;;;5.67;;
9485;SDS011;4781;48.776;9.200;2023-05-28T06:42:13;12.00;;;5.85;;
9485;SDS011;4781;48.776;9.200;2023-05-28T06:44:41;12.65;;;5.12;;
9485;SDS011;4781;48.776;9.200;2023-05-28T06:47:10;10.65;;;6.10;;
9485;SDS011;4781;48.776;9.200;2023-05-28T06:49:38;11.00;;;5.45;;
9485;SDS011;4781;48.776;9.200;2023-05-28T06:52:07;13.98;;;5.95;;
9485;SDS011;4781;48.776;9.200;2023-05-28T06:54:35;10.40;;;5.20;;
9485;SDS011;4781;48.776;9.200;2023-05-28T06:57:03;10.98;;;5.47;;
9485;SDS011;4781;48.776;9.200;2023-05-28T06:59:32;9.85;;;5.20;;
9485;SDS011;4781;48.776;9.200;2023-05-28T07:02:01;9.33;;;4.87;;
9485;SDS011;4781;48.776;9.200;2023-05-28T07:04:29;12.93;;;5.50;;
9485;SDS011;4781;48.776;9.200;2023-05-28T07:06:58;11.25;;;4.62;;
9485;SDS011;4781;48.776;9.200;2023-05-28T07:09:26;13.83;;;5.10;;
9485;SDS011;4781;48.776;9.200;2023-05-28T07:11:55;12.40;;;5.03;;
9485;SDS011;4781;48.776;9.200;2023-05-28T07:14:23;12.00;;;4.70;;
9485;SDS011;4781;48.776;9.200;2023-05-28T07:16:52;10.63;;;4.97;;
9485;SDS011;4781;48.776;9.200;2023-05-28T07:19:20;10.63;;;5.45;;
9485;SDS011;4781;48.776;9.200;2023-05-28T07:21:49;9.25;;;4.75;;
9485;SDS011;4781;48.776;9.200;2023-05-28T07:24:17;10.88;;;4.67;;
9485;SDS011;4781;48.776;9.200;2023-05-28T07:26:46;10.40;;;4.58;;
9485;SDS011;4781;48.776;9.200;2023-05-28T07:29:14;11.03;;;5.05;;
9485;SDS011;4781;48.776;9.200;2023-05-28T07:31:44;15.53;;;5.00;;
9485;SDS011;4781;48.776;9.200;2023-05-28T07:34:12;10.55;;;4.50;;
9485;SDS011;4781;48.776;9.200;2023-05-28T07:36:41;8.68;;;4.60;;
9485;SDS011;4781;48.776;9.200;2023-05-28T07:39:09;11.05;;;4.67;;
9485;SDS011;4781;48.776;9.200;2023-05-28T07:41:38;9.60;;;4.35;;
9485;SDS011;4781;48.776;9.200;2023-05-28T07:44:06;11.95;;;4.75;;
9485;SDS011;4781;48.776;9.200;2023-05-28T07:46:36;10.13;;;4.65;;
9485;SDS011;4781;48.776;9.200;2023-05-28T07:49:04;9.23;;;4.50;;
9485;SDS011;4781;48.776;9.200;2023-05-28T07:51:33;10.45;;;4.55;;
9485;SDS011;4781;48.776;9.200;2023-05-28T07:54:01;11.48;;;4.97;;
9485;SDS011;4781;48.776;9.200;2023-05-28T07:56:29;10.70;;;4.85;;
9485;SDS011;4781;48.776;9.200;2023-05-28T07:58:58;13.65;;;4.95;;
9485;SDS011;4781;48.776;9.200;2023-05-28T08:01:26;12.75;;;4.58;;
9485;SDS011;4781;48.776;9.200;2023-05-28T08:03:55;10.55;;;4.10;;
9485;SDS011;4781;48.776;9.200;2023-05-28T08:06:23;12.00;;;4.55;;
9485;SDS011;4781;48.776;9.200;2023-05-28T08:08:52;11.90;;;4.90;;
9485;SDS011;4781;48.776;9.200;2023-05-28T08:11:20;9.30;;;4.62;;
9485;SDS011;4781;48.776;9.200;2023-05-28T08:13:49;9.98;;;4.53;;
9485;SDS011;4781;48.776;9.200;2023-05-28T08:16:17;9.98;;;4.75;;
9485;SDS011;4781;48.776;9.200;2023-05-28T08:18:45;10.90;;;4.33;;
9485;SDS011;4781;48.776;9.200;2023-05-28T08:21:14;16.35;;;4.97;;
9485;SDS011;4781;48.776;9.200;2023-05-28T08:23:42;10.53;;;4.70;;
9485;SDS011;4781;48.776;9.200;2023-05-28T08:26:11;9.18;;;4.45;;
9485;SDS011;4781;48.776;9.200;2023-05-28T08:28:39;11.10;;;4.65;;
9485;SDS011;4781;48.776;9.200;2023-05-28T08:31:07;13.15;;;4.97;;
9485;SDS011;4781;48.776;9.200;2023-05-28T08:33:36;12.70;;;4.78;;
9485;SDS011;4781;48.776;9.200;2023-05-28T08:36:04;12.23;;;4.47;;
9485;SDS011;4781;48.776;9.200;2023-05-28T08:38:33;8.48;;;4.55;;
9485;SDS011;4781;48.776;9.200;2023-05-28T08:41:01;10.48;;;4.58;;
9485;SDS011;4781;48.776;9.200;2023-05-28T08:43:30;9.25;;;4.95;;
9485;SDS011;4781;48.776;9.200;2023-05-28T08:45:58;8.88;;;4.72;;
9485;SDS011;4781;48.776;9.200;2023-05-28T08:48:27;9.90;;;4.60;;
9485;SDS011;4781;48.776;9.200;2023-05-28T08:51:00;11.05;;;4.80;;
9485;SDS011;4781;48.776;9.200;2023-05-28T08:53:32;9.85;;;4.80;;
9485;SDS011;4781;48.776;9.200;2023-05-28T08:56:05;11.93;;;4.67;;
9485;SDS011;4781;48.776;9.200;2023-05-28T08:58:35;10.05;;;4.65;;
9485;SDS011;4781;48.776;9.200;2023-05-28T09:01:08;10.58;;;4.67;;
9485;SDS011;4781;48.776;9.200;2023-05-28T09:03:37;11.55;;;5.00;;
9485;SDS011;4781;48.776;9.200;2023-05-28T09:06:07;11.05;;;4.55;;
9485;SDS011;4781;48.776;9.200;2023-05-28T09:08:36;15.90;;;4.87;;
9485;SDS011;4781;48.776;9.200;2023-05-28T09:11:08;12.28;;;4.70;;
9485;SDS011;4781;48.776;9.200;2023-05-28T09:13:44;8.40;;;4.08;;
9485;SDS011;4781;48.776;9.200;2023-05-28T09:16:20;10.08;;;4.87;;
9485;SDS011;4781;48.776;9.200;2023-05-28T09:18:51;12.58;;;4.90;;
9485;SDS011;4781;48.776;9.200;2023-05-28T09:21:23;10.78;;;4.45;;
9485;SDS011;4781;48.776;9.200;2023-05-28T09:23:51;11.55;;;4.92;;
9485;SDS011;4781;48.776;9.200;2023-05-28T09:26:19;10.68;;;4.92;;
9485;SDS011;4781;48.776;9.200;2023-05-28T09:28:51;9.25;;;4.10;;
9485;SDS011;4781;48.776;9.200;2023-05-28T09:31:19;10.58;;;4.60;;
9485;SDS011;4781;48.776;9.200;2023-05-28T09:33:48;11.38;;;4.47;;
9485;SDS011;4781;48.776;9.200;2023-05-28T09:36:17;10.15;;;4.05;;
9485;SDS011;4781;48.776;9.200;2023-05-28T09:38:45;11.78;;;4.42;;
9485;SDS011;4781;48.776;9.200;2023-05-28T09:41:20;9.80;;;4.40;;
9485;SDS011;4781;48.776;9.200;2023-05-28T09:44:00;11.97;;;4.30;;
9485;SDS011;4781;48.776;9.200;2023-05-28T09:46:32;9.78;;;4.10;;
9485;SDS011;4781;48.776;9.200;2023-05-28T09:49:01;9.33;;;3.65;;
9485;SDS011;4781;48.776;9.200;2023-05-28T09:51:32;10.70;;;4.35;;
9485;SDS011;4781;48.776;9.200;2023-05-28T09:54:02;10.75;;;4.10;;
9485;SDS011;4781;48.776;9.200;2023-05-28T09:56:34;8.63;;;4.12;;
9485;SDS011;4781;48.776;9.200;2023-05-28T09:59:05;10.45;;;3.95;;
9485;SDS011;4781;48.776;9.200;2023-05-28T10:01:41;9.08;;;4.03;;
9485;SDS011;4781;48.776;9.200;2023-05-28T10:04:14;9.18;;;4.12;;
9485;SDS011;4781;48.776;9.200;2023-05-28T10:06:47;8.40;;;4.35;;
9485;SDS011;4781;48.776;9.200;2023-05-28T10:09:16;9.73;;;3.80;;
9485;SDS011;4781;48.776;9.200;2023-05-28T10:14:43;10.68;;;3.62;;
9485;SDS011;4781;48.776;9.200;2023-05-28T10:17:13;9.43;;;4.00;;
9485;SDS011;4781;48.776;9.200;2023-05-28T10:19:44;9.83;;;4.12;;
9485;SDS011;4781;48.776;9.200;2023-05-28T10:22:13;11.80;;;4.20;;
9485;SDS011;4781;48.776;9.200;2023-05-28T10:24:43;10.68;;;4.35;;
9485;SDS011;4781;48.776;9.200;2023-05-28T10:27:15;10.30;;;4.03;;
9485;SDS011;4781;48.776;9.200;2023-05-28T10:29:45;8.53;;;4.33;;
9485;SDS011;4781;48.776;9.200;2023-05-28T10:32:14;9.15;;;3.72;;
9485;SDS011;4781;48.776;9.200;2023-05-28T10:34:43;9.25;;;4.00;;
9485;SDS011;4781;48.776;9.200;2023-05-28T10:37:11;11.93;;;4.10;;
9485;SDS011;4781;48.776;9.200;2023-05-28T10:39:43;8.98;;;4.00;;
9485;SDS011;4781;48.776;9.200;2023-05-28T10:42:15;10.63;;;4.25;;
9485;SDS011;4781;48.776;9.200;2023-05-28T10:47:36;9.10;;;3.95;;
9485;SDS011;4781;48.776;9.200;2023-05-28T10:55:09;8.03;;;3.85;;
9485;SDS011;4781;48.776;9.200;2023-05-28T10:57:47;9.50;;;4.47;;
9485;SDS011;4781;48.776;9.200;2023-05-28T11:00:23;9.30;;;4.33;;
9485;SDS011;4781;48.776;9.200;2023-05-28T11:02:52;10.80;;;4.70;;
9485;SDS011;4781;48.776;9.200;2023-05-28T11:05:24;8.38;;;3.85;;
9485;SDS011;4781;48.776;9.200;2023-05-28T11:07:54;8.00;;;3.77;;
9485;SDS011;4781;48.776;9.200;2023-05-28T11:10:23;9.55;;;4.40;;
9485;SDS011;4781;48.776;9.200;2023-05-28T11:12:54;10.45;;;3.80;;
9485;SDS011;4781;48.776;9.200;2023-05-28T11:15:23;9.73;;;4.42;;
9485;SDS011;4781;48.776;9.200;2023-05-28T11:17:51;11.28;;;4.30;;
9485;SDS011;4781;48.776;9.200;2023-05-28T11:20:21;8.43;;;4.42;;
9485;SDS011;4781;48.776;9.200;2023-05-28T11:22:53;8.05;;;3.90;;
9485;SDS011;4781;48.776;9.200;2023-05-28T11:25:22;9.50;;;4.65;;
9485;SDS011;4781;48.776;9.200;2023-05-28T11:27:53;9.38;;;4.33;;
9485;SDS011;4781;48.776;9.200;2023-05-28T11:30:23;9.13;;;4.30;;
9485;SDS011;4781;48.776;9.200;2023-05-28T11:32:53;9.48;;;4.42;;
9485;SDS011;4781;48.776;9.200;2023-05-28T11:35:22;10.20;;;4.70;;
9485;SDS011;4781;48.776;9.200;2023-05-28T11:37:52;11.85;;;5.33;;
9485;SDS011;4781;48.776;9.200;2023-05-28T11:40:25;10.53;;;4.30;;
9485;SDS011;4781;48.776;9.200;2023-05-28T11:43:00;8.18;;;4.08;;
9485;SDS011;4781;48.776;9.200;2023-05-28T11:45:35;8.15;;;4.78;;
9485;SDS011;4781;48.776;9.200;2023-05-28T11:48:03;8.98;;;4.28;;
9485;SDS011;4781;48.776;9.200;2023-05-28T11:50:38;10.18;;;4.37;;
9485;SDS011;4781;48.776;9.200;2023-05-28T11:53:07;9.00;;;3.80;;
9485;SDS011;4781;48.776;9.200;2023-05-28T11:55:37;10.32;;;4.25;;
9485;SDS011;4781;48.776;9.200;2023-05-28T12:01:17;9.68;;;4.33;;
9485;SDS011;4781;48.776;9.200;2023-05-28T12:03:45;10.63;;;4.17;;
9485;SDS011;4781;48.776;9.200;2023-05-28T12:06:13;8.33;;;3.98;;
9485;SDS011;4781;48.776;9.200;2023-05-28T12:08:42;8.85;;;4.47;;
9485;SDS011;4781;48.776;9.200;2023-05-28T12:11:11;8.63;;;4.15;;
9485;SDS011;4781;48.776;9.200;2023-05-28T12:13:39;9.58;;;4.33;;
9485;SDS011;4781;48.776;9.200;2023-05-28T12:16:09;9.68;;;4.12;;
9485;SDS011;4781;48.776;9.200;2023-05-28T12:18:39;10.23;;;4.83;;
9485;SDS011;4781;48.776;9.200;2023-05-28T12:21:17;9.05;;;4.55;;
9485;SDS011;4781;48.776;9.200;2023-05-28T12:23:44;9.23;;;4.75;;
9485;SDS011;4781;48.776;9.200;2023-05-28T12:26:13;7.53;;;3.95;;
9485;SDS011;4781;48.776;9.200;2023-05-28T12:28:42;10.58;;;4.08;;
9485;SDS011;4781;48.776;9.200;2023-05-28T12:31:11;9.78;;;4.12;;
9485;SDS011;4781;48.776;9.200;2023-05-28T12:33:40;7.35;;;4.03;;
9485;SDS011;4781;48.776;9.200;2023-05-28T12:36:08;9.78;;;4.22;;
9485;SDS011;4781;48.776;9.200;2023-05-28T12:38:37;6.80;;;3.80;;
9485;SDS011;4781;48.776;9.200;2023-05-28T12:41:05;8.95;;;4.30;;
9485;SDS011;4781;48.776;9.200;2023-05-28T12:43:34;9.05;;;3.98;;
9485;SDS011;4781;48.776;9.200;2023-05-28T12:46:02;7.62;;;4.28;;
9485;SDS011;4781;48.776;9.200;2023-05-28T12:48:31;9.78;;;4.33;;
9485;SDS011;4781;48.776;9.200;2023-05-28T12:50:59;10.28;;;4.60;;
9485;SDS011;4781;48.776;9.200;2023-05-28T12:53:29;10.15;;;4.33;;
9485;SDS011;4781;48.776;9.200;2023-05-28T12:55:57;13.10;;;4.50;;
9485;SDS011;4781;48.776;9.200;2023-05-28T12:58:25;11.80;;;3.90;;
9485;SDS011;4781;48.776;9.200;2023-05-28T13:00:54;9.78;;;4.40;;
9485;SDS011;4781;48.776;9.200;2023-05-28T13:03:22;9.55;;;4.60;;
9485;SDS011;4781;48.776;9.200;2023-05-28T13:05:51;7.92;;;4.05;;
9485;SDS011;4781;48.776;9.200;2023-05-28T13:08:20;8.28;;;4.17;;
9485;SDS011;4781;48.776;9.200;2023-05-28T13:10:48;8.55;;;4.50;;
9485;SDS011;4781;48.776;9.200;2023-05-28T13:13:17;8.60;;;4.17;;
9485;SDS011;4781;48.776;9.200;2023-05-28T13:15:45;10.00;;;4.90;;
9485;SDS011;4781;48.776;9.200;2023-05-28T13:18:13;9.88;;;4.30;;
9485;SDS011;4781;48.776;9.200;2023-05-28T13:20:42;8.35;;;4.22;;
9485;SDS011;4781;48.776;9.200;2023-05-28T13:23:10;8.98;;;4.20;;
9485;SDS011;4781;48.776;9.200;2023-05-28T13:25:39;8.70;;;4.05;;
9485;SDS011;4781;48.776;9.200;2023-05-28T13:28:07;9.95;;;4.50;;
9485;SDS011;4781;48.776;9.200;2023-05-28T13:30:35;9.00;;;4.30;;
9485;SDS011;4781;48.776;9.200;2023-05-28T13:33:04;9.05;;;4.83;;
9485;SDS011;4781;48.776;9.200;2023-05-28T13:35:32;8.23;;;4.35;;
9485;SDS011;4781;48.776;9.200;2023-05-28T13:38:01;9.25;;;4.40;;
9485;SDS011;4781;48.776;9.200;2023-05-28T13:40:30;10.45;;;6.03;;
9485;SDS011;4781;48.776;9.200;2023-05-28T13:42:58;11.22;;;4.70;;
9485;SDS011;4781;48.776;9.200;2023-05-28T13:45:27;8.78;;;4.42;;
9485;SDS011;4781;48.776;9.200;2023-05-28T13:47:57;10.88;;;4.67;;
9485;SDS011;4781;48.776;9.200;2023-05-28T13:50:25;10.48;;;4.95;;
9485;SDS011;4781;48.776;9.200;2023-05-28T13:52:55;9.80;;;4.70;;
9485;SDS011;4781;48.776;9.200;2023-05-28T13:55:24;9.33;;;4.50;;
9485;SDS011;4781;48.776;9.200;2023-05-28T13:57:52;8.68;;;4.47;;
9485;SDS011;4781;48.776;9.200;2023-05-28T14:00:21;7.27;;;4.33;;
9485;SDS011;4781;48.776;9.200;2023-05-28T14:02:49;9.90;;;4.53;;
9485;SDS011;4781;48.776;9.200;2023-05-28T14:05:19;9.80;;;4.47;;
9485;SDS011;4781;48.776;9.200;2023-05-28T14:07:47;9.63;;;4.70;;
9485;SDS011;4781;48.776;9.200;2023-05-28T14:10:15;9.13;;;4.42;;
9485;SDS011;4781;48.776;9.200;2023-05-28T14:12:47;8.63;;;4.70;;
9485;SDS011;4781;48.776;9.200;2023-05-28T14:15:18;8.68;;;4.50;;
9485;SDS011;4781;48.776;9.200;2023-05-28T14:17:47;7.17;;;4.28;;
9485;SDS011;4781;48.776;9.200;2023-05-28T14:20:16;8.85;;;4.33;;
9485;SDS011;4781;48.776;9.200;2023-05-28T14:22:44;11.57;;;4.05;;
9485;SDS011;4781;48.776;9.200;2023-05-28T14:25:12;11.22;;;4.35;;
9485;SDS011;4781;48.776;9.200;2023-05-28T14:27:41;7.35;;;3.95;;
9485;SDS011;4781;48.776;9.200;2023-05-28T14:30:10;7.93;;;4.20;;
9485;SDS011;4781;48.776;9.200;2023-05-28T14:32:38;10.15;;;4.80;;
9485;SDS011;4781;48.776;9.200;2023-05-28T14:35:07;13.98;;;5.12;;
9485;SDS011;4781;48.776;9.200;2023-05-28T14:37:35;8.43;;;4.20;;
9485;SDS011;4781;48.776;9.200;2023-05-28T14:40:04;9.45;;;4.53;;
9485;SDS011;4781;48.776;9.200;2023-05-28T14:42:33;12.58;;;4.30;;
9485;SDS011;4781;48.776;9.200;2023-05-28T14:45:02;9.08;;;4.90;;
9485;SDS011;4781;48.776;9.200;2023-05-28T14:47:30;11.15;;;5.22;;
9485;SDS011;4781;48.776;9.200;2023-05-28T14:49:59;10.00;;;4.97;;
9485;SDS011;4781;48.776;9.200;2023-05-28T14:52:29;8.03;;;3.95;;
9485;SDS011;4781;48.776;9.200;2023-05-28T14:54:58;8.55;;;4.50;;
9485;SDS011;4781;48.776;9.200;2023-05-28T14:57:27;8.23;;;4.12;;
9485;SDS011;4781;48.776;9.200;2023-05-28T15:00:03;8.08;;;4.58;;
9485;SDS011;4781;48.776;9.200;2023-05-28T15:02:38;9.18;;;4.37;;
9485;SDS011;4781;48.776;9.200;2023-05-28T15:05:03;8.18;;;4.03;;
9485;SDS011;4781;48.776;9.200;2023-05-28T15:07:33;7.45;;;4.35;;
9485;SDS011;4781;48.776;9.200;2023-05-28T15:10:01;9.38;;;4.30;;
9485;SDS011;4781;48.776;9.200;2023-05-28T15:12:30;9.20;;;4.55;;
9485;SDS011;4781;48.776;9.200;2023-05-28T15:14:58;9.78;;;4.55;;
9485;SDS011;4781;48.776;9.200;2023-05-28T15:17:27;7.97;;;4.62;;
9485;SDS011;4781;48.776;9.200;2023-05-28T15:19:55;7.25;;;4.42;;
9485;SDS011;4781;48.776;9.200;2023-05-28T15:22:23;9.45;;;4.80;;
9485;SDS011;4781;48.776;9.200;2023-05-28T15:24:52;10.50;;;4.95;;
9485;SDS011;4781;48.776;9.200;2023-05-28T15:27:21;9.30;;;4.33;;
9485;SDS011;4781;48.776;9.200;2023-05-28T15:29:49;9.65;;;4.75;;
9485;SDS011;4781;48.776;9.200;2023-05-28T15:32:18;9.38;;;4.62;;